createdAt,value
2023-03-17T00:00:47.697Z,10.00
2023-03-17T00:03:32.135Z,10.00
2023-03-17T00:06:00.513Z,10.00
2023-03-17T00:08:31.391Z,10.00
2023-03-17T00:10:59.376Z,10.00
2023-03-17T00:13:27.853Z,10.00
2023-03-17T00:16:03.827Z,10.00
2023-03-17T00:18:33.489Z,9.90
2023-03-17T00:21:00.916Z,10.00
2023-03-17T00:23:28.315Z,9.90
2023-03-17T00:25:58.175Z,9.90
2023-03-17T00:28:27.864Z,9.80
2023-03-17T00:31:00.996Z,9.80
2023-03-17T00:33:30.585Z,9.80
2023-03-17T00:35:58.806Z,9.80
2023-03-17T00:38:26.441Z,9.80
2023-03-17T00:40:54.219Z,9.70
2023-03-17T00:43:21.501Z,9.70
2023-03-17T00:45:49.475Z,9.70
2023-03-17T00:48:19.717Z,9.70
2023-03-17T00:50:49.744Z,9.70
2023-03-17T00:53:19.516Z,9.70
2023-03-17T00:55:47.938Z,9.70
2023-03-17T00:58:29.070Z,9.60
2023-03-17T01:00:56.916Z,9.60
2023-03-17T01:03:26.878Z,9.60
2023-03-17T01:05:57.013Z,9.50
2023-03-17T01:08:25.828Z,9.50
2023-03-17T01:10:55.383Z,9.50
2023-03-17T01:13:23.913Z,9.40
2023-03-17T01:15:57.173Z,9.40
2023-03-17T01:18:27.140Z,9.40
2023-03-17T01:20:54.745Z,9.40
2023-03-17T01:23:24.465Z,9.30
2023-03-17T01:25:51.869Z,9.30
2023-03-17T01:28:21.437Z,9.30
2023-03-17T01:30:49.307Z,9.30
2023-03-17T01:33:16.733Z,9.30
2023-03-17T01:35:45.822Z,9.20
2023-03-17T01:38:14.213Z,9.20
2023-03-17T01:40:49.519Z,9.20
2023-03-17T01:43:24.203Z,9.20
2023-03-17T01:46:20.950Z,9.20
2023-03-17T01:48:58.768Z,9.10
2023-03-17T01:51:49.961Z,9.10
2023-03-17T01:54:40.027Z,9.10
2023-03-17T01:57:16.584Z,9.10
2023-03-17T01:59:54.486Z,9.00
2023-03-17T02:02:34.728Z,9.00
2023-03-17T02:05:03.970Z,9.00
2023-03-17T02:07:31.459Z,9.00
2023-03-17T02:09:59.556Z,8.90
2023-03-17T02:12:30.971Z,8.90
2023-03-17T02:14:58.585Z,8.90
2023-03-17T02:17:27.469Z,8.90
2023-03-17T02:19:58.372Z,8.90
2023-03-17T02:22:28.210Z,8.90
2023-03-17T02:24:58.383Z,8.80
2023-03-17T02:27:34.947Z,8.90
2023-03-17T02:30:02.716Z,8.80
2023-03-17T02:32:32.666Z,8.80
2023-03-17T02:34:59.965Z,8.80
2023-03-17T02:37:27.402Z,8.80
2023-03-17T02:39:56.802Z,8.80
2023-03-17T02:42:26.427Z,8.80
2023-03-17T02:44:56.369Z,8.80
2023-03-17T02:47:23.898Z,8.70
2023-03-17T02:49:51.898Z,8.70
2023-03-17T02:52:19.396Z,8.70
2023-03-17T02:54:46.662Z,8.70
2023-03-17T02:57:13.952Z,8.70
2023-03-17T02:59:41.606Z,8.70
2023-03-17T03:02:09.682Z,8.70
2023-03-17T03:04:39.326Z,8.70
2023-03-17T03:07:06.790Z,8.60
2023-03-17T03:09:34.236Z,8.60
2023-03-17T03:12:01.828Z,8.60
2023-03-17T03:14:29.248Z,8.60
2023-03-17T03:16:56.624Z,8.60
2023-03-17T03:19:24.369Z,8.50
2023-03-17T03:21:51.654Z,8.50
2023-03-17T03:24:21.560Z,8.50
2023-03-17T03:26:49.043Z,8.50
2023-03-17T03:29:16.888Z,8.50
2023-03-17T03:31:44.219Z,8.40
2023-03-17T03:34:11.627Z,8.40
2023-03-17T03:36:38.926Z,8.40
2023-03-17T03:39:08.726Z,8.40
2023-03-17T03:41:39.093Z,8.40
2023-03-17T03:44:08.577Z,8.40
2023-03-17T03:46:36.018Z,8.40
2023-03-17T03:49:03.437Z,8.40
2023-03-17T03:51:30.711Z,8.40
2023-03-17T03:53:58.013Z,8.40
2023-03-17T03:56:25.481Z,8.40
2023-03-17T03:58:52.910Z,8.40
2023-03-17T04:01:20.168Z,8.30
2023-03-17T04:03:47.503Z,8.30
2023-03-17T04:06:16.266Z,8.30
2023-03-17T04:08:45.913Z,8.30
2023-03-17T04:11:13.302Z,8.30
2023-03-17T04:13:40.587Z,8.30
2023-03-17T04:16:11.062Z,8.30
2023-03-17T04:18:38.418Z,8.30
2023-03-17T04:21:08.393Z,8.20
2023-03-17T04:23:36.347Z,8.20
2023-03-17T04:26:06.154Z,8.20
2023-03-17T04:28:34.276Z,8.20
2023-03-17T04:31:01.582Z,8.20
2023-03-17T04:33:31.702Z,8.20
2023-03-17T04:35:59.131Z,8.30
2023-03-17T04:38:26.749Z,8.20
2023-03-17T04:40:56.454Z,8.20
2023-03-17T04:43:23.870Z,8.20
2023-03-17T04:45:51.300Z,8.20
2023-03-17T04:48:18.577Z,8.20
2023-03-17T04:50:47.840Z,8.20
2023-03-17T04:53:15.156Z,8.10
2023-03-17T04:55:42.723Z,8.10
2023-03-17T04:58:21.109Z,8.10
2023-03-17T05:00:58.392Z,8.10
2023-03-17T05:03:27.831Z,8.10
2023-03-17T05:05:57.998Z,8.00
2023-03-17T05:08:26.359Z,8.00
2023-03-17T05:10:56.574Z,8.00
2023-03-17T05:13:27.810Z,8.00
2023-03-17T05:15:56.292Z,8.00
2023-03-17T05:18:25.532Z,8.00
2023-03-17T05:20:53.439Z,8.00
2023-03-17T05:23:22.336Z,8.00
2023-03-17T05:25:49.779Z,8.00
2023-03-17T05:28:18.254Z,8.00
2023-03-17T05:30:46.011Z,8.00
2023-03-17T05:33:16.472Z,8.00
2023-03-17T05:35:43.835Z,7.90
2023-03-17T05:38:17.219Z,8.00
2023-03-17T05:40:45.624Z,8.00
2023-03-17T05:43:15.506Z,8.00
2023-03-17T05:45:43.053Z,8.00
2023-03-17T05:48:12.379Z,8.00
2023-03-17T05:50:41.784Z,8.00
2023-03-17T05:53:09.646Z,8.00
2023-03-17T05:55:37.026Z,8.00
2023-03-17T05:58:05.945Z,8.00
2023-03-17T06:00:36.468Z,8.00
2023-03-17T06:03:04.748Z,8.00
2023-03-17T06:05:32.194Z,8.00
2023-03-17T06:07:59.499Z,8.00
2023-03-17T06:10:29.505Z,8.10
2023-03-17T06:12:57.141Z,8.10
2023-03-17T06:15:26.923Z,8.10
2023-03-17T06:17:54.274Z,8.10
2023-03-17T06:20:21.997Z,8.10
2023-03-17T06:23:03.921Z,8.20
2023-03-17T06:25:38.465Z,8.20
2023-03-17T06:28:06.396Z,8.20
2023-03-17T06:30:40.518Z,8.20
2023-03-17T06:33:08.534Z,8.30
2023-03-17T06:35:36.145Z,8.30
2023-03-17T06:38:05.810Z,8.30
2023-03-17T06:40:35.481Z,8.40
2023-03-17T06:43:03.136Z,8.40
2023-03-17T06:45:32.945Z,8.40
2023-03-17T06:48:00.534Z,8.40
2023-03-17T06:50:30.330Z,8.40
2023-03-17T06:53:00.147Z,8.50
2023-03-17T06:55:27.475Z,8.50
2023-03-17T06:57:54.729Z,8.60
2023-03-17T07:00:22.999Z,8.60
2023-03-17T07:02:50.227Z,8.60
2023-03-17T07:05:17.990Z,8.70
2023-03-17T07:07:46.567Z,8.80
2023-03-17T07:10:16.032Z,8.90
2023-03-17T07:12:43.692Z,8.90
2023-03-17T07:15:13.979Z,9.00
2023-03-17T07:17:42.070Z,9.20
2023-03-17T07:20:10.821Z,9.30
2023-03-17T07:22:38.075Z,9.40
2023-03-17T07:25:08.240Z,9.60
2023-03-17T07:27:36.000Z,9.70
2023-03-17T07:30:05.021Z,9.80
2023-03-17T07:32:33.130Z,10.00
2023-03-17T07:35:00.482Z,10.10
2023-03-17T07:37:30.630Z,10.20
2023-03-17T07:39:57.879Z,10.30
2023-03-17T07:42:25.147Z,10.40
2023-03-17T07:44:52.674Z,10.50
2023-03-17T07:47:20.527Z,10.60
2023-03-17T07:49:48.024Z,10.70
2023-03-17T07:52:17.779Z,10.80
2023-03-17T07:54:47.706Z,10.90
2023-03-17T07:57:16.936Z,11.00
2023-03-17T07:59:44.530Z,11.00
2023-03-17T08:02:16.462Z,11.10
2023-03-17T08:04:44.670Z,11.20
2023-03-17T08:07:12.942Z,11.20
2023-03-17T08:09:42.930Z,11.30
2023-03-17T08:12:10.618Z,11.30
2023-03-17T08:14:41.412Z,11.40
2023-03-17T08:17:08.811Z,11.50
2023-03-17T08:19:36.255Z,11.60
2023-03-17T08:22:06.643Z,11.60
2023-03-17T08:24:34.274Z,11.60
2023-03-17T08:27:01.645Z,11.70
2023-03-17T08:29:29.951Z,11.60
2023-03-17T08:31:57.720Z,11.70
2023-03-17T08:34:26.213Z,11.70
2023-03-17T08:36:53.794Z,11.80
2023-03-17T08:39:21.552Z,11.80
2023-03-17T08:41:48.888Z,11.90
2023-03-17T08:44:16.592Z,11.90
2023-03-17T08:46:44.017Z,12.00
2023-03-17T08:49:12.548Z,12.00
2023-03-17T08:51:40.834Z,12.00
2023-03-17T08:54:08.719Z,12.00
2023-03-17T08:56:37.058Z,12.10
2023-03-17T08:59:08.676Z,12.10
2023-03-17T09:01:36.263Z,12.20
2023-03-17T09:04:06.604Z,12.30
2023-03-17T09:06:36.371Z,12.30
2023-03-17T09:09:03.709Z,12.40
2023-03-17T09:11:34.983Z,12.50
2023-03-17T09:14:04.640Z,12.60
2023-03-17T09:16:34.160Z,12.70
2023-03-17T09:19:04.528Z,12.80
2023-03-17T09:21:34.046Z,12.90
2023-03-17T09:24:02.640Z,12.90
2023-03-17T09:26:30.246Z,13.00
2023-03-17T09:28:57.787Z,13.00
2023-03-17T09:31:25.225Z,13.10
2023-03-17T09:33:52.634Z,13.20
2023-03-17T09:36:20.424Z,13.20
2023-03-17T09:38:47.725Z,13.30
2023-03-17T09:41:20.474Z,13.30
2023-03-17T09:43:53.556Z,13.40
2023-03-17T09:46:45.552Z,13.40
2023-03-17T09:49:20.973Z,13.50
2023-03-17T09:51:52.486Z,13.60
2023-03-17T09:54:27.212Z,13.70
2023-03-17T09:57:25.189Z,13.70
2023-03-17T10:00:01.587Z,13.80
2023-03-17T10:02:37.505Z,13.90
2023-03-17T10:05:24.219Z,13.90
2023-03-17T10:08:28.947Z,14.00
2023-03-17T10:11:18.451Z,14.10
2023-03-17T10:14:03.913Z,14.20
2023-03-17T10:16:49.762Z,14.20
2023-03-17T10:19:24.009Z,14.30
2023-03-17T10:21:58.137Z,14.30
2023-03-17T10:24:32.434Z,14.30
2023-03-17T10:27:04.784Z,14.40
2023-03-17T10:29:32.633Z,14.40
2023-03-17T10:32:02.105Z,14.50
2023-03-17T10:34:36.647Z,14.50
2023-03-17T10:37:21.621Z,14.50
2023-03-17T10:39:56.255Z,14.50
2023-03-17T10:42:25.506Z,14.60
2023-03-17T10:44:57.703Z,14.60
2023-03-17T10:47:40.441Z,14.70
2023-03-17T10:50:21.774Z,14.80
2023-03-17T10:53:01.072Z,14.90
2023-03-17T10:55:39.029Z,14.90
2023-03-17T10:58:18.929Z,14.90
2023-03-17T11:01:00.058Z,15.00
2023-03-17T11:03:36.093Z,15.10
2023-03-17T11:06:11.674Z,15.10
2023-03-17T11:08:48.946Z,15.20
2023-03-17T11:11:28.585Z,15.30
2023-03-17T11:14:28.349Z,15.40
2023-03-17T11:16:57.521Z,15.50
2023-03-17T11:20:11.533Z,15.50
2023-03-17T11:22:43.826Z,15.60
2023-03-17T11:25:25.316Z,15.70
2023-03-17T11:28:21.661Z,15.70
2023-03-17T11:31:24.258Z,15.80
2023-03-17T11:34:08.886Z,15.90
2023-03-17T11:37:02.426Z,15.90
2023-03-17T11:40:15.167Z,16.00
2023-03-17T11:43:04.084Z,16.00
2023-03-17T11:46:06.382Z,16.10
2023-03-17T11:48:45.957Z,16.10
2023-03-17T11:51:27.676Z,16.20
2023-03-17T11:54:01.096Z,16.20
2023-03-17T11:56:28.216Z,16.20
2023-03-17T11:59:25.918Z,16.20
2023-03-17T12:02:31.941Z,16.20
2023-03-17T12:05:06.160Z,16.30
2023-03-17T12:07:44.876Z,16.30
2023-03-17T12:10:45.269Z,16.40
2023-03-17T12:13:21.934Z,16.40
2023-03-17T12:16:28.067Z,16.50
2023-03-17T12:19:01.451Z,16.50
2023-03-17T12:21:57.384Z,16.60
2023-03-17T12:24:50.450Z,16.60
2023-03-17T12:27:45.530Z,16.70
2023-03-17T12:30:29.088Z,16.70
2023-03-17T12:33:06.646Z,16.70
2023-03-17T12:35:37.694Z,16.80
2023-03-17T12:38:11.067Z,16.80
2023-03-17T12:41:05.645Z,16.80
2023-03-17T12:43:48.745Z,16.80
2023-03-17T12:46:47.513Z,16.80
2023-03-17T12:49:27.559Z,16.80
2023-03-17T12:52:02.934Z,16.80
2023-03-17T12:54:36.524Z,16.90
2023-03-17T12:57:13.127Z,16.90
2023-03-17T12:59:46.751Z,16.90
2023-03-17T13:02:24.064Z,16.90
2023-03-17T13:05:01.016Z,17.00
2023-03-17T13:07:38.505Z,17.00
2023-03-17T13:10:19.391Z,17.00
2023-03-17T13:12:59.806Z,17.00
2023-03-17T13:15:39.693Z,17.00
2023-03-17T13:18:15.477Z,17.00
2023-03-17T13:21:09.333Z,17.00
2023-03-17T13:24:10.128Z,17.00
2023-03-17T13:27:10.194Z,17.00
2023-03-17T13:29:39.338Z,17.00
2023-03-17T13:32:26.906Z,17.00
2023-03-17T13:35:15.894Z,17.00
2023-03-17T13:37:49.047Z,17.00
2023-03-17T13:40:46.294Z,17.00
2023-03-17T13:43:35.626Z,17.00
2023-03-17T13:46:39.153Z,17.00
2023-03-17T13:49:21.263Z,17.00
2023-03-17T13:52:12.327Z,17.00
2023-03-17T13:54:49.016Z,17.00
2023-03-17T13:57:26.491Z,16.90
2023-03-17T14:00:01.482Z,16.90
2023-03-17T14:02:36.509Z,16.90
2023-03-17T14:05:07.614Z,16.90
2023-03-17T14:07:54.943Z,16.90
2023-03-17T14:10:25.427Z,16.90
2023-03-17T14:13:01.396Z,16.90
2023-03-17T14:15:35.017Z,16.90
2023-03-17T14:18:17.271Z,16.90
2023-03-17T14:20:55.672Z,16.90
2023-03-17T14:23:26.618Z,17.00
2023-03-17T14:26:00.429Z,17.00
2023-03-17T14:28:31.100Z,17.00
2023-03-17T14:31:06.732Z,17.00
2023-03-17T14:33:42.662Z,17.00
2023-03-17T14:36:14.295Z,17.00
2023-03-17T14:38:49.046Z,17.00
2023-03-17T14:41:18.114Z,17.00
2023-03-17T14:43:45.953Z,17.00
2023-03-17T14:46:23.936Z,17.00
2023-03-17T14:49:04.028Z,17.00
2023-03-17T14:51:38.231Z,17.00
2023-03-17T14:54:18.530Z,17.00
2023-03-17T14:56:52.891Z,17.00
2023-03-17T14:59:43.195Z,17.10
2023-03-17T15:02:22.638Z,17.00
2023-03-17T15:04:56.948Z,17.00
2023-03-17T15:07:37.460Z,17.00
2023-03-17T15:10:06.743Z,17.00
2023-03-17T15:12:38.547Z,17.00
2023-03-17T15:15:30.049Z,17.00
2023-03-17T15:17:59.439Z,17.00
2023-03-17T15:20:33.605Z,17.00
2023-03-17T15:23:22.153Z,17.00
2023-03-17T15:25:55.993Z,17.00
2023-03-17T15:28:29.025Z,17.00
2023-03-17T15:31:05.375Z,17.00
2023-03-17T15:33:37.017Z,17.00
2023-03-17T15:36:04.869Z,17.00
2023-03-17T15:38:33.326Z,17.00
2023-03-17T15:41:00.696Z,17.00
2023-03-17T15:43:30.739Z,17.00
2023-03-17T15:46:02.343Z,17.00
2023-03-17T15:48:32.222Z,17.00
2023-03-17T15:51:01.436Z,17.00
2023-03-17T15:53:28.871Z,17.00
2023-03-17T15:55:56.389Z,17.00
2023-03-17T15:58:23.861Z,17.00
2023-03-17T16:00:55.337Z,16.90
2023-03-17T16:03:29.639Z,16.90
2023-03-17T16:05:57.925Z,16.90
2023-03-17T16:08:25.439Z,16.90
2023-03-17T16:10:53.222Z,16.90
2023-03-17T16:13:23.125Z,16.90
2023-03-17T16:15:59.961Z,16.80
2023-03-17T16:18:36.952Z,16.80
2023-03-17T16:21:05.141Z,16.80
2023-03-17T16:23:36.909Z,16.80
2023-03-17T16:26:14.870Z,16.80
2023-03-17T16:28:45.615Z,16.70
2023-03-17T16:31:25.186Z,16.70
2023-03-17T16:33:57.226Z,16.70
2023-03-17T16:36:28.119Z,16.60
2023-03-17T16:38:55.438Z,16.60
2023-03-17T16:41:27.541Z,16.60
2023-03-17T16:44:00.688Z,16.60
2023-03-17T16:46:34.033Z,16.50
2023-03-17T16:49:04.383Z,16.50
2023-03-17T16:51:31.977Z,16.50
2023-03-17T16:53:59.312Z,16.50
2023-03-17T16:56:31.570Z,16.50
2023-03-17T16:59:01.066Z,16.50
2023-03-17T17:01:32.101Z,16.40
2023-03-17T17:03:59.429Z,16.40
2023-03-17T17:06:26.951Z,16.40
2023-03-17T17:08:59.273Z,16.30
2023-03-17T17:11:41.249Z,16.30
2023-03-17T17:14:11.754Z,16.20
2023-03-17T17:16:40.581Z,16.20
2023-03-17T17:19:22.866Z,16.20
2023-03-17T17:21:50.376Z,16.20
2023-03-17T17:24:17.801Z,16.10
2023-03-17T17:26:46.677Z,16.10
2023-03-17T17:29:14.053Z,16.00
2023-03-17T17:31:41.866Z,16.00
2023-03-17T17:34:12.300Z,16.00
2023-03-17T17:36:40.010Z,16.00
2023-03-17T17:39:11.208Z,16.00
2023-03-17T17:41:39.022Z,15.90
2023-03-17T17:44:12.919Z,15.90
2023-03-17T17:46:41.866Z,15.90
2023-03-17T17:49:11.794Z,15.90
2023-03-17T17:51:39.431Z,15.90
2023-03-17T17:54:06.932Z,15.90
2023-03-17T17:56:36.758Z,15.80
2023-03-17T17:59:10.623Z,15.80
2023-03-17T18:01:38.976Z,15.80
2023-03-17T18:04:16.532Z,15.70
2023-03-17T18:06:43.942Z,15.80
2023-03-17T18:09:15.021Z,15.80
2023-03-17T18:11:45.457Z,15.70
2023-03-17T18:14:13.777Z,15.70
2023-03-17T18:16:44.050Z,15.70
2023-03-17T18:19:15.317Z,15.70
2023-03-17T18:21:42.983Z,15.70
2023-03-17T18:24:13.503Z,15.70
2023-03-17T18:26:41.683Z,15.70
2023-03-17T18:29:16.899Z,15.70
2023-03-17T18:31:47.739Z,15.70
2023-03-17T18:34:31.636Z,15.60
2023-03-17T18:37:04.652Z,15.70
2023-03-17T18:39:34.841Z,15.60
2023-03-17T18:42:03.194Z,15.60
2023-03-17T18:44:32.872Z,15.60
2023-03-17T18:47:02.750Z,15.60
2023-03-17T18:49:30.825Z,15.60
2023-03-17T18:52:05.468Z,15.60
2023-03-17T18:54:37.473Z,15.60
2023-03-17T18:57:05.336Z,15.50
2023-03-17T18:59:35.853Z,15.50
2023-03-17T19:02:06.823Z,15.50
2023-03-17T19:04:45.887Z,15.50
2023-03-17T19:07:19.054Z,15.50
2023-03-17T19:09:46.345Z,15.50
2023-03-17T19:12:16.001Z,15.40
2023-03-17T19:14:44.049Z,15.40
2023-03-17T19:17:11.421Z,15.40
2023-03-17T19:19:38.892Z,15.30
2023-03-17T19:22:06.322Z,15.30
2023-03-17T19:24:37.696Z,15.30
2023-03-17T19:27:12.148Z,15.30
2023-03-17T19:29:39.667Z,15.20
2023-03-17T19:32:07.075Z,15.20
2023-03-17T19:34:37.235Z,15.20
2023-03-17T19:37:05.831Z,15.10
2023-03-17T19:39:33.925Z,15.10
2023-03-17T19:42:01.499Z,15.10
2023-03-17T19:44:28.789Z,15.10
2023-03-17T19:46:58.579Z,15.10
2023-03-17T19:49:26.203Z,15.00
2023-03-17T19:51:54.169Z,15.00
2023-03-17T19:54:23.402Z,15.00
2023-03-17T19:56:51.494Z,15.00
2023-03-17T19:59:21.201Z,14.90
2023-03-17T20:01:49.167Z,14.90
2023-03-17T20:04:23.004Z,14.90
2023-03-17T20:06:55.696Z,14.90
2023-03-17T20:09:27.213Z,14.90
2023-03-17T20:11:56.212Z,14.80
2023-03-17T20:14:26.603Z,14.80
2023-03-17T20:16:53.905Z,14.80
2023-03-17T20:19:23.931Z,14.80
2023-03-17T20:21:53.413Z,14.70
2023-03-17T20:24:20.834Z,14.70
2023-03-17T20:26:49.478Z,14.70
2023-03-17T20:29:17.615Z,14.70
2023-03-17T20:31:47.165Z,14.60
2023-03-17T20:34:21.853Z,14.60
2023-03-17T20:36:49.528Z,14.60
2023-03-17T20:39:20.009Z,14.60
2023-03-17T20:41:48.436Z,14.60
2023-03-17T20:44:19.577Z,14.50
2023-03-17T20:46:47.654Z,14.50
2023-03-17T20:49:17.276Z,14.50
2023-03-17T20:51:47.848Z,14.50
2023-03-17T20:54:15.428Z,14.40
2023-03-17T20:56:42.866Z,14.40
2023-03-17T20:59:13.450Z,14.40
2023-03-17T21:01:43.646Z,14.40
2023-03-17T21:04:12.632Z,14.30
2023-03-17T21:06:41.509Z,14.30
2023-03-17T21:09:10.173Z,14.30
2023-03-17T21:11:37.901Z,14.30
2023-03-17T21:14:09.383Z,14.30
2023-03-17T21:16:45.898Z,14.30
2023-03-17T21:19:15.483Z,14.20
2023-03-17T21:21:43.307Z,14.20
2023-03-17T21:24:25.881Z,14.20
2023-03-17T21:26:53.392Z,14.20
2023-03-17T21:29:23.605Z,14.10
2023-03-17T21:31:53.485Z,14.10
2023-03-17T21:34:23.667Z,14.10
2023-03-17T21:36:52.057Z,14.10
2023-03-17T21:39:31.311Z,14.10
2023-03-17T21:42:02.415Z,14.00
2023-03-17T21:44:30.849Z,14.00
2023-03-17T21:46:59.340Z,14.00
2023-03-17T21:49:27.046Z,14.00
2023-03-17T21:51:54.863Z,14.00
2023-03-17T21:54:22.781Z,14.00
2023-03-17T21:56:50.210Z,13.90
2023-03-17T21:59:21.132Z,13.90
2023-03-17T22:01:52.223Z,13.90
2023-03-17T22:04:20.062Z,13.90
2023-03-17T22:07:09.855Z,13.90
2023-03-17T22:09:37.665Z,13.90
2023-03-17T22:12:05.414Z,13.80
2023-03-17T22:14:37.674Z,13.90
2023-03-17T22:17:08.273Z,13.80
2023-03-17T22:19:46.022Z,13.80
2023-03-17T22:22:17.501Z,13.80
2023-03-17T22:24:45.088Z,13.80
2023-03-17T22:27:13.514Z,13.80
2023-03-17T22:29:41.102Z,13.70
2023-03-17T22:32:15.242Z,13.70
2023-03-17T22:34:47.861Z,13.70
2023-03-17T22:37:15.441Z,13.70
2023-03-17T22:39:43.646Z,13.70
2023-03-17T22:42:14.543Z,13.60
2023-03-17T22:44:44.487Z,13.60
2023-03-17T22:47:12.146Z,13.60
2023-03-17T22:49:41.851Z,13.60
2023-03-17T22:52:09.320Z,13.60
2023-03-17T22:55:06.140Z,13.50
2023-03-17T22:57:34.039Z,13.60
2023-03-17T23:00:10.145Z,13.60
2023-03-17T23:02:37.678Z,13.50
2023-03-17T23:05:08.753Z,13.50
2023-03-17T23:07:49.579Z,13.50
2023-03-17T23:10:25.664Z,13.40
2023-03-17T23:13:23.237Z,13.50
2023-03-17T23:15:51.905Z,13.40
2023-03-17T23:18:27.837Z,13.40
2023-03-17T23:20:55.935Z,13.40
2023-03-17T23:23:26.054Z,13.30
2023-03-17T23:25:58.329Z,13.30
2023-03-17T23:28:26.991Z,13.30
2023-03-17T23:31:02.920Z,13.30
2023-03-17T23:33:32.768Z,13.20
2023-03-17T23:36:03.484Z,13.20
2023-03-17T23:38:31.643Z,13.20
2023-03-17T23:41:02.858Z,13.20
2023-03-17T23:43:34.469Z,13.20
2023-03-17T23:46:12.041Z,13.10
2023-03-17T23:48:42.562Z,13.10
2023-03-17T23:51:20.631Z,13.10
2023-03-17T23:53:53.499Z,13.10
2023-03-17T23:56:35.256Z,13.10
2023-03-17T23:59:08.583Z,13.00
